Nashville, Tennessee
Current Conditions -  °F | °C
As of 8:53 AM on Thursday 23 Oct 2014 (Local Time) from KBNA Reporting Station
Few Clouds Few Clouds  
Wind Chill: 47°   Ceiling: Unl
Heat Index: 49°   Visibility: 10mi
Dew Point: 44°   Wind: 6mph
Humidity: 83%   Direction: 40°NE
Pressure: 30.23"   Gusts: NA
Location:  36.11°N, 86.68°W
Report Text: KBNA 231353Z 04005KT 10SM FEW200 09/07 A3023 RMK AO2 SLP237 T00940067
Loading
Personal Weather Stations






























Interactive Weather Map
Tropical Storm Tracking
New forecast layout! Learn more

10-Day Weather Forecast

Advertisements
Track Severe Weather on mobile